This is the latest recevied weather packets stored in our database for station/object JH5HTX-13. If no packets are shown the sender has not sent any weather packets the latest 1 day(s).
| Time | Temp. | Humidity | Pressure | Rain* | Wind** | Luminosity | Snow |
|---|---|---|---|---|---|---|---|
| 1778088078 | 13.33° C | 91% | 1016 hPa | 0 mm | - | - | - |
| 1778087178 | 13.33° C | 91% | 1015.8 hPa | 0 mm | - | - | - |
| 1778086278 | 13.33° C | 90% | 1015.9 hPa | 0 mm | - | - | - |
| 1778085378 | 13.89° C | 91% | 1016.1 hPa | 0 mm | - | - | - |
| 1778084478 | 13.89° C | 90% | 1016.3 hPa | 0 mm | - | - | - |
| 1778079977 | 14.44° C | 90% | 1017 hPa | 0 mm | - | - | - |
| 1778079077 | 14.44° C | 89% | 1016.7 hPa | 0 mm | - | - | - |
| 1778078177 | 14.44° C | 88% | 1016.9 hPa | 0 mm | - | - | - |
| 1778077277 | 15° C | 88% | 1017.2 hPa | 0 mm | - | - | - |
| 1778076377 | 15° C | 87% | 1017.4 hPa | 0 mm | - | - | - |
| 1778070076 | 16.67° C | 84% | 1017 hPa | 0 mm | - | - | - |
| 1778069176 | 16.67° C | 84% | 1016.9 hPa | 0 mm | - | - | - |
| 1778068276 | 16.67° C | 84% | 1016.5 hPa | 0 mm | - | - | - |
| 1778062875 | 19.44° C | 77% | 1016.3 hPa | 0 mm | - | - | - |
| 1778061975 | 19.44° C | 75% | 1016.2 hPa | 0 mm | - | - | - |
| 1778061075 | 20° C | 75% | 1016.1 hPa | 0 mm | - | - | - |
| 1778060175 | 20.56° C | 74% | 1016.2 hPa | 0 mm | - | - | - |
| 1778059275 | 20.56° C | 73% | 1016.1 hPa | 0 mm | - | - | - |
| 1778055674 | 21.11° C | 72% | 1016 hPa | 0 mm | - | - | - |
| 1778054774 | 21.67° C | 72% | 1016 hPa | 0 mm | - | - | - |
| 1778053874 | 21.67° C | 72% | 1016.2 hPa | 0 mm | - | - | - |
| 1778052974 | 21.67° C | 71% | 1016.4 hPa | 0 mm | - | - | - |
| 1778052074 | 22.22° C | 69% | 1016.4 hPa | 0 mm | - | - | - |
| 1778051174 | 22.22° C | 69% | 1016.3 hPa | 0 mm | - | - | - |
| 1778045773 | 22.78° C | 66% | 1017 hPa | 0 mm | - | - | - |
* Rain latest hour (hover to see other rain measurements)
** Current wind speed in m/s (hover to see current wind gust speed)